Terminal Aerodrome Forecast
Issued by NWS Chicago, IL

Home | Current Version | Previous Version | Text Only | Print | Product List | Glossary Off
Versions: 1 2 3 4 5 6 7 8 9 10 11 12 13 14 15 16 17 18 19 20 21 22 23

000
FTUS43 KLOT 190249 AAA
TAFRFD
TAF AMD
KRFD 190249Z 1903/1924 31012KT P6SM BKN035
      TEMPO 1903/1906 BKN025
     FM191300 29011G17KT P6SM SCT200
     FM192300 24006KT P6SM SCT200=

USA.gov is the U.S. government's official web portal to all federal, state and local government web resources and services.